sensor_id;sensor_type;location;lat;lon;timestamp;pressure;altitude;pressure_sealevel;temperature;humidity
19748;BME280;10032;51.386;12.516;2023-02-11T00:00:10;101863.63;;;2.58;100.00
19748;BME280;10032;51.386;12.516;2023-02-11T00:02:35;101863.16;;;2.63;100.00
19748;BME280;10032;51.386;12.516;2023-02-11T00:05:01;101855.31;;;2.61;100.00
19748;BME280;10032;51.386;12.516;2023-02-11T00:07:31;101855.66;;;2.66;100.00
19748;BME280;10032;51.386;12.516;2023-02-11T00:09:56;101855.66;;;2.66;100.00
19748;BME280;10032;51.386;12.516;2023-02-11T00:12:22;101831.56;;;2.66;100.00
19748;BME280;10032;51.386;12.516;2023-02-11T00:14:48;101826.94;;;2.68;100.00
19748;BME280;10032;51.386;12.516;2023-02-11T00:17:13;101815.38;;;2.68;100.00
19748;BME280;10032;51.386;12.516;2023-02-11T00:19:39;101810.72;;;2.70;100.00
19748;BME280;10032;51.386;12.516;2023-02-11T00:22:08;101795.13;;;2.65;100.00
19748;BME280;10032;51.386;12.516;2023-02-11T00:24:35;101791.44;;;2.66;100.00
19748;BME280;10032;51.386;12.516;2023-02-11T00:27:00;101778.25;;;2.65;100.00
19748;BME280;10032;51.386;12.516;2023-02-11T00:29:34;101777.09;;;2.67;100.00
19748;BME280;10032;51.386;12.516;2023-02-11T00:32:00;101777.91;;;2.68;100.00
19748;BME280;10032;51.386;12.516;2023-02-11T00:34:35;101778.78;;;2.68;100.00
19748;BME280;10032;51.386;12.516;2023-02-11T00:37:01;101771.75;;;2.67;100.00
19748;BME280;10032;51.386;12.516;2023-02-11T00:39:26;101764.25;;;2.71;100.00
19748;BME280;10032;51.386;12.516;2023-02-11T00:41:52;101771.41;;;2.70;100.00
19748;BME280;10032;51.386;12.516;2023-02-11T00:44:17;101777.28;;;2.74;100.00
19748;BME280;10032;51.386;12.516;2023-02-11T00:46:43;101777.81;;;2.77;100.00
19748;BME280;10032;51.386;12.516;2023-02-11T00:49:08;101779.50;;;2.78;100.00
19748;BME280;10032;51.386;12.516;2023-02-11T00:51:34;101774.16;;;2.78;100.00
19748;BME280;10032;51.386;12.516;2023-02-11T00:53:59;101778.34;;;2.81;100.00
19748;BME280;10032;51.386;12.516;2023-02-11T00:56:25;101763.97;;;2.82;100.00
19748;BME280;10032;51.386;12.516;2023-02-11T00:58:50;101755.28;;;2.88;100.00
19748;BME280;10032;51.386;12.516;2023-02-11T01:01:16;101760.13;;;2.92;100.00
19748;BME280;10032;51.386;12.516;2023-02-11T01:03:41;101743.47;;;2.98;100.00
19748;BME280;10032;51.386;12.516;2023-02-11T01:06:07;101754.00;;;3.00;100.00
19748;BME280;10032;51.386;12.516;2023-02-11T01:08:33;101758.19;;;3.02;100.00
19748;BME280;10032;51.386;12.516;2023-02-11T01:11:01;101752.16;;;3.08;100.00
19748;BME280;10032;51.386;12.516;2023-02-11T01:13:27;101743.03;;;3.19;100.00
19748;BME280;10032;51.386;12.516;2023-02-11T01:15:54;101750.75;;;3.22;100.00
19748;BME280;10032;51.386;12.516;2023-02-11T01:18:19;101737.84;;;3.25;100.00
19748;BME280;10032;51.386;12.516;2023-02-11T01:20:45;101742.72;;;3.30;100.00
19748;BME280;10032;51.386;12.516;2023-02-11T01:23:10;101728.31;;;3.31;100.00
19748;BME280;10032;51.386;12.516;2023-02-11T01:25:36;101727.16;;;3.33;100.00
19748;BME280;10032;51.386;12.516;2023-02-11T01:28:01;101726.13;;;3.34;100.00
19748;BME280;10032;51.386;12.516;2023-02-11T01:30:27;101720.78;;;3.34;100.00
19748;BME280;10032;51.386;12.516;2023-02-11T01:32:52;101729.16;;;3.39;100.00
19748;BME280;10032;51.386;12.516;2023-02-11T01:35:18;101720.81;;;3.42;100.00
19748;BME280;10032;51.386;12.516;2023-02-11T01:37:43;101722.50;;;3.43;100.00
19748;BME280;10032;51.386;12.516;2023-02-11T01:40:15;101736.53;;;3.45;100.00
19748;BME280;10032;51.386;12.516;2023-02-11T01:42:41;101735.56;;;3.46;100.00
19748;BME280;10032;51.386;12.516;2023-02-11T01:48:13;101720.50;;;3.53;100.00
19748;BME280;10032;51.386;12.516;2023-02-11T01:50:40;101720.34;;;3.55;100.00
19748;BME280;10032;51.386;12.516;2023-02-11T01:53:07;101731.88;;;3.55;100.00
19748;BME280;10032;51.386;12.516;2023-02-11T01:55:52;101730.91;;;3.56;100.00
19748;BME280;10032;51.386;12.516;2023-02-11T01:58:40;101718.31;;;3.57;100.00
19748;BME280;10032;51.386;12.516;2023-02-11T02:01:10;101715.47;;;3.58;100.00
19748;BME280;10032;51.386;12.516;2023-02-11T02:03:40;101722.50;;;3.59;100.00
19748;BME280;10032;51.386;12.516;2023-02-11T02:06:15;101726.38;;;3.65;100.00
19748;BME280;10032;51.386;12.516;2023-02-11T02:08:55;101742.25;;;3.66;100.00
19748;BME280;10032;51.386;12.516;2023-02-11T02:11:23;101736.59;;;3.69;100.00
19748;BME280;10032;51.386;12.516;2023-02-11T02:13:48;101737.78;;;3.75;100.00
19748;BME280;10032;51.386;12.516;2023-02-11T02:16:16;101725.03;;;3.77;100.00
19748;BME280;10032;51.386;12.516;2023-02-11T02:21:53;101731.25;;;3.77;100.00
19748;BME280;10032;51.386;12.516;2023-02-11T02:40:23;101702.75;;;3.92;100.00
19748;BME280;10032;51.386;12.516;2023-02-11T02:42:50;101703.44;;;3.94;100.00
19748;BME280;10032;51.386;12.516;2023-02-11T02:45:16;101694.03;;;3.98;100.00
19748;BME280;10032;51.386;12.516;2023-02-11T02:47:42;101697.38;;;4.00;100.00
19748;BME280;10032;51.386;12.516;2023-02-11T02:50:08;101703.56;;;4.01;100.00
19748;BME280;10032;51.386;12.516;2023-02-11T02:52:57;101688.34;;;4.01;100.00
19748;BME280;10032;51.386;12.516;2023-02-11T03:01:02;101691.66;;;4.11;100.00
19748;BME280;10032;51.386;12.516;2023-02-11T03:03:47;101689.66;;;4.13;100.00
19748;BME280;10032;51.386;12.516;2023-02-11T03:06:58;101687.66;;;4.15;100.00
19748;BME280;10032;51.386;12.516;2023-02-11T03:09:44;101696.34;;;4.17;100.00
19748;BME280;10032;51.386;12.516;2023-02-11T03:12:13;101685.63;;;4.17;100.00
19748;BME280;10032;51.386;12.516;2023-02-11T03:14:40;101681.59;;;4.21;100.00
19748;BME280;10032;51.386;12.516;2023-02-11T03:17:07;101687.78;;;4.22;100.00
19748;BME280;10032;51.386;12.516;2023-02-11T03:19:37;101669.53;;;4.25;100.00
19748;BME280;10032;51.386;12.516;2023-02-11T03:22:07;101666.84;;;4.25;100.00
19748;BME280;10032;51.386;12.516;2023-02-11T03:24:37;101661.97;;;4.29;100.00
19748;BME280;10032;51.386;12.516;2023-02-11T03:27:16;101655.75;;;4.28;100.00
19748;BME280;10032;51.386;12.516;2023-02-11T03:30:13;101637.66;;;4.30;100.00
19748;BME280;10032;51.386;12.516;2023-02-11T03:35:20;101638.63;;;4.37;100.00
19748;BME280;10032;51.386;12.516;2023-02-11T03:37:54;101642.34;;;4.36;100.00
19748;BME280;10032;51.386;12.516;2023-02-11T03:40:24;101650.03;;;4.39;100.00
19748;BME280;10032;51.386;12.516;2023-02-11T03:43:00;101629.25;;;4.41;100.00
19748;BME280;10032;51.386;12.516;2023-02-11T03:45:27;101637.94;;;4.43;100.00
19748;BME280;10032;51.386;12.516;2023-02-11T03:47:58;101648.34;;;4.46;100.00
19748;BME280;10032;51.386;12.516;2023-02-11T03:50:25;101643.63;;;4.48;100.00
19748;BME280;10032;51.386;12.516;2023-02-11T03:52:54;101638.75;;;4.52;100.00
19748;BME280;10032;51.386;12.516;2023-02-11T03:55:22;101640.88;;;4.56;100.00
19748;BME280;10032;51.386;12.516;2023-02-11T03:57:47;101641.56;;;4.58;100.00
19748;BME280;10032;51.386;12.516;2023-02-11T04:00:14;101634.16;;;4.60;100.00
19748;BME280;10032;51.386;12.516;2023-02-11T04:02:40;101641.41;;;4.60;100.00
19748;BME280;10032;51.386;12.516;2023-02-11T04:05:07;101630.13;;;4.64;100.00
19748;BME280;10032;51.386;12.516;2023-02-11T04:07:33;101636.16;;;4.66;100.00
19748;BME280;10032;51.386;12.516;2023-02-11T04:09:59;101638.50;;;4.69;100.00
19748;BME280;10032;51.386;12.516;2023-02-11T04:12:25;101606.78;;;4.73;100.00
19748;BME280;10032;51.386;12.516;2023-02-11T04:14:50;101607.97;;;4.70;100.00
19748;BME280;10032;51.386;12.516;2023-02-11T04:17:16;101613.81;;;4.74;100.00
19748;BME280;10032;51.386;12.516;2023-02-11T04:19:41;101617.66;;;4.79;100.00
19748;BME280;10032;51.386;12.516;2023-02-11T04:22:07;101610.63;;;4.78;100.00
19748;BME280;10032;51.386;12.516;2023-02-11T04:24:32;101617.66;;;4.79;100.00
19748;BME280;10032;51.386;12.516;2023-02-11T04:26:58;101620.97;;;4.81;100.00
19748;BME280;10032;51.386;12.516;2023-02-11T04:29:23;101621.66;;;4.83;100.00
19748;BME280;10032;51.386;12.516;2023-02-11T04:31:49;101625.00;;;4.85;100.00
19748;BME280;10032;51.386;12.516;2023-02-11T04:34:14;101616.78;;;4.87;100.00
19748;BME280;10032;51.386;12.516;2023-02-11T04:36:40;101620.94;;;4.89;100.00
19748;BME280;10032;51.386;12.516;2023-02-11T04:39:06;101622.63;;;4.90;100.00
19748;BME280;10032;51.386;12.516;2023-02-11T04:41:31;101615.41;;;4.91;100.00
19748;BME280;10032;51.386;12.516;2023-02-11T04:43:57;101624.94;;;4.93;100.00
19748;BME280;10032;51.386;12.516;2023-02-11T04:46:22;101624.94;;;4.93;100.00
19748;BME280;10032;51.386;12.516;2023-02-11T04:48:48;101616.53;;;4.96;100.00
19748;BME280;10032;51.386;12.516;2023-02-11T04:51:13;101632.94;;;5.01;100.00
19748;BME280;10032;51.386;12.516;2023-02-11T04:53:39;101631.94;;;5.02;100.00
19748;BME280;10032;51.386;12.516;2023-02-11T04:56:04;101632.94;;;5.01;100.00
19748;BME280;10032;51.386;12.516;2023-02-11T04:58:30;101626.38;;;5.04;100.00
19748;BME280;10032;51.386;12.516;2023-02-11T05:01:04;101631.41;;;5.07;100.00
19748;BME280;10032;51.386;12.516;2023-02-11T05:03:29;101640.28;;;5.07;100.00
19748;BME280;10032;51.386;12.516;2023-02-11T05:05:55;101641.78;;;5.10;100.00
19748;BME280;10032;51.386;12.516;2023-02-11T05:08:20;101633.88;;;5.16;100.00
19748;BME280;10032;51.386;12.516;2023-02-11T05:10:46;101631.19;;;5.16;100.00
19748;BME280;10032;51.386;12.516;2023-02-11T05:13:12;101632.84;;;5.17;100.00
19748;BME280;10032;51.386;12.516;2023-02-11T05:15:37;101628.13;;;5.19;100.00
19748;BME280;10032;51.386;12.516;2023-02-11T05:18:03;101616.72;;;5.17;100.00
19748;BME280;10032;51.386;12.516;2023-02-11T05:20:28;101609.31;;;5.19;100.00
19748;BME280;10032;51.386;12.516;2023-02-11T05:22:54;101604.78;;;5.20;100.00
19748;BME280;10032;51.386;12.516;2023-02-11T05:25:19;101605.63;;;5.20;100.00
19748;BME280;10032;51.386;12.516;2023-02-11T05:27:44;101598.56;;;5.19;100.00
19748;BME280;10032;51.386;12.516;2023-02-11T05:30:10;101599.41;;;5.20;100.00
19748;BME280;10032;51.386;12.516;2023-02-11T05:32:36;101593.88;;;5.21;100.00
19748;BME280;10032;51.386;12.516;2023-02-11T05:35:01;101599.72;;;5.25;100.00
19748;BME280;10032;51.386;12.516;2023-02-11T05:37:27;101601.38;;;5.26;100.00
19748;BME280;10032;51.386;12.516;2023-02-11T05:39:52;101607.44;;;5.28;100.00
19748;BME280;10032;51.386;12.516;2023-02-11T05:42:18;101606.25;;;5.30;100.00
19748;BME280;10032;51.386;12.516;2023-02-11T05:44:43;101612.44;;;5.31;100.00
19748;BME280;10032;51.386;12.516;2023-02-11T05:47:08;101613.63;;;5.28;100.00
19748;BME280;10032;51.386;12.516;2023-02-11T05:49:34;101616.97;;;5.30;100.00
19748;BME280;10032;51.386;12.516;2023-02-11T05:51:59;101611.59;;;5.30;100.00
19748;BME280;10032;51.386;12.516;2023-02-11T05:54:25;101609.91;;;5.29;100.00
19748;BME280;10032;51.386;12.516;2023-02-11T05:56:51;101613.28;;;5.31;100.00
19748;BME280;10032;51.386;12.516;2023-02-11T05:59:16;101613.28;;;5.31;100.00
19748;BME280;10032;51.386;12.516;2023-02-11T06:01:42;101607.91;;;5.31;100.00
19748;BME280;10032;51.386;12.516;2023-02-11T06:04:08;101596.31;;;5.31;100.00
19748;BME280;10032;51.386;12.516;2023-02-11T06:06:33;101594.16;;;5.26;100.00
19748;BME280;10032;51.386;12.516;2023-02-11T06:08:59;101600.38;;;5.27;100.00
19748;BME280;10032;51.386;12.516;2023-02-11T06:11:27;101590.47;;;5.27;100.00
19748;BME280;10032;51.386;12.516;2023-02-11T06:13:52;101599.16;;;5.29;100.00
19748;BME280;10032;51.386;12.516;2023-02-11T06:16:18;101596.94;;;5.33;100.00
19748;BME280;10032;51.386;12.516;2023-02-11T06:18:43;101591.78;;;5.31;100.00
19748;BME280;10032;51.386;12.516;2023-02-11T06:21:09;101577.03;;;5.27;100.00
19748;BME280;10032;51.386;12.516;2023-02-11T06:23:35;101573.31;;;5.28;100.00
19748;BME280;10032;51.386;12.516;2023-02-11T06:26:06;101569.81;;;5.28;100.00
19748;BME280;10032;51.386;12.516;2023-02-11T06:28:32;101578.34;;;5.31;100.00
19748;BME280;10032;51.386;12.516;2023-02-11T06:31:08;101579.38;;;5.30;100.00
19748;BME280;10032;51.386;12.516;2023-02-11T06:33:36;101577.31;;;5.32;100.00
19748;BME280;10032;51.386;12.516;2023-02-11T06:36:03;101571.56;;;5.35;100.00
19748;BME280;10032;51.386;12.516;2023-02-11T06:38:29;101579.84;;;5.34;100.00
19748;BME280;10032;51.386;12.516;2023-02-11T06:40:54;101585.22;;;5.34;100.00
19748;BME280;10032;51.386;12.516;2023-02-11T06:43:20;101581.97;;;5.38;100.00
19748;BME280;10032;51.386;12.516;2023-02-11T06:45:51;101579.94;;;5.40;100.00
19748;BME280;10032;51.386;12.516;2023-02-11T06:48:17;101586.63;;;5.44;100.00
19748;BME280;10032;51.386;12.516;2023-02-11T06:50:42;101584.94;;;5.43;100.00
19748;BME280;10032;51.386;12.516;2023-02-11T06:53:08;101587.47;;;5.45;100.00
19748;BME280;10032;51.386;12.516;2023-02-11T06:55:33;101597.03;;;5.47;100.00
19748;BME280;10032;51.386;12.516;2023-02-11T06:57:59;101597.66;;;5.49;100.00
19748;BME280;10032;51.386;12.516;2023-02-11T07:00:24;101599.16;;;5.52;100.00
19748;BME280;10032;51.386;12.516;2023-02-11T07:02:50;101603.50;;;5.53;100.00
19748;BME280;10032;51.386;12.516;2023-02-11T07:05:16;101600.81;;;5.53;100.00
19748;BME280;10032;51.386;12.516;2023-02-11T07:07:41;101591.56;;;5.55;100.00
19748;BME280;10032;51.386;12.516;2023-02-11T07:10:07;101574.41;;;5.56;100.00
19748;BME280;10032;51.386;12.516;2023-02-11T07:12:33;101579.59;;;5.58;100.00
19748;BME280;10032;51.386;12.516;2023-02-11T07:14:58;101582.28;;;5.58;100.00
19748;BME280;10032;51.386;12.516;2023-02-11T07:17:23;101586.66;;;5.59;100.00
19748;BME280;10032;51.386;12.516;2023-02-11T07:19:49;101590.66;;;5.63;100.00
19748;BME280;10032;51.386;12.516;2023-02-11T07:22:14;101585.75;;;5.66;100.00
19748;BME280;10032;51.386;12.516;2023-02-11T07:24:40;101585.75;;;5.66;100.00
19748;BME280;10032;51.386;12.516;2023-02-11T07:27:05;101589.91;;;5.69;100.00
19748;BME280;10032;51.386;12.516;2023-02-11T07:29:31;101591.22;;;5.73;100.00
19748;BME280;10032;51.386;12.516;2023-02-11T07:31:57;101595.59;;;5.74;100.00
19748;BME280;10032;51.386;12.516;2023-02-11T07:34:23;101591.22;;;5.73;100.00
19748;BME280;10032;51.386;12.516;2023-02-11T07:36:48;101595.41;;;5.75;100.00
19748;BME280;10032;51.386;12.516;2023-02-11T07:39:14;101594.22;;;5.78;100.00
19748;BME280;10032;51.386;12.516;2023-02-11T07:41:39;101590.34;;;5.80;100.00
19748;BME280;10032;51.386;12.516;2023-02-11T07:44:05;101587.31;;;5.83;100.00
19748;BME280;10032;51.386;12.516;2023-02-11T07:46:31;101594.34;;;5.84;100.00
19748;BME280;10032;51.386;12.516;2023-02-11T07:48:56;101588.97;;;5.84;100.00
19748;BME280;10032;51.386;12.516;2023-02-11T07:51:27;101599.72;;;5.84;100.00
19748;BME280;10032;51.386;12.516;2023-02-11T07:53:53;101587.56;;;5.88;100.00
19748;BME280;10032;51.386;12.516;2023-02-11T07:56:20;101582.84;;;5.90;100.00
19748;BME280;10032;51.386;12.516;2023-02-11T07:58:47;101576.91;;;5.95;100.00
19748;BME280;10032;51.386;12.516;2023-02-11T08:01:16;101582.13;;;5.96;100.00
19748;BME280;10032;51.386;12.516;2023-02-11T08:03:42;101584.91;;;6.03;100.00
19748;BME280;10032;51.386;12.516;2023-02-11T08:06:14;101581.66;;;6.07;100.00
19748;BME280;10032;51.386;12.516;2023-02-11T08:08:40;101578.97;;;6.07;100.00
19748;BME280;10032;51.386;12.516;2023-02-11T08:11:07;101581.28;;;6.10;100.00
19748;BME280;10032;51.386;12.516;2023-02-11T08:13:34;101574.88;;;6.11;100.00
19748;BME280;10032;51.386;12.516;2023-02-11T08:15:59;101584.63;;;6.12;100.00
19748;BME280;10032;51.386;12.516;2023-02-11T08:18:24;101583.59;;;6.13;100.00
19748;BME280;10032;51.386;12.516;2023-02-11T08:20:50;101591.66;;;6.13;100.00
19748;BME280;10032;51.386;12.516;2023-02-11T08:23:15;101594.00;;;6.16;100.00
19748;BME280;10032;51.386;12.516;2023-02-11T08:25:41;101594.28;;;6.21;100.00
19748;BME280;10032;51.386;12.516;2023-02-11T08:28:06;101587.41;;;6.19;100.00
19748;BME280;10032;51.386;12.516;2023-02-11T08:30:33;101590.56;;;6.22;100.00
19748;BME280;10032;51.386;12.516;2023-02-11T08:32:58;101583.97;;;6.25;100.00
19748;BME280;10032;51.386;12.516;2023-02-11T08:35:24;101579.22;;;6.27;100.00
19748;BME280;10032;51.386;12.516;2023-02-11T08:37:51;101583.03;;;6.32;100.00
19748;BME280;10032;51.386;12.516;2023-02-11T08:40:16;101589.44;;;6.31;100.00
19748;BME280;10032;51.386;12.516;2023-02-11T08:42:41;101584.34;;;6.36;100.00
19748;BME280;10032;51.386;12.516;2023-02-11T08:45:07;101593.06;;;6.38;100.00
19748;BME280;10032;51.386;12.516;2023-02-11T08:47:35;101596.38;;;6.40;100.00
19748;BME280;10032;51.386;12.516;2023-02-11T08:50:00;101578.66;;;6.46;100.00
19748;BME280;10032;51.386;12.516;2023-02-11T08:52:26;101589.88;;;6.49;100.00
19748;BME280;10032;51.386;12.516;2023-02-11T08:54:52;101593.78;;;6.47;100.00
19748;BME280;10032;51.386;12.516;2023-02-11T08:57:17;101593.97;;;6.45;100.00
19748;BME280;10032;51.386;12.516;2023-02-11T08:59:42;101584.88;;;6.46;100.00
19748;BME280;10032;51.386;12.516;2023-02-11T09:02:11;101598.59;;;6.51;100.00
19748;BME280;10032;51.386;12.516;2023-02-11T09:04:37;101597.38;;;6.54;100.00
19748;BME280;10032;51.386;12.516;2023-02-11T09:07:02;101593.97;;;6.60;100.00
19748;BME280;10032;51.386;12.516;2023-02-11T09:09:29;101594.03;;;6.66;100.00
19748;BME280;10032;51.386;12.516;2023-02-11T09:11:54;101595.59;;;6.75;100.00
19748;BME280;10032;51.386;12.516;2023-02-11T09:14:23;101603.53;;;6.83;100.00
19748;BME280;10032;51.386;12.516;2023-02-11T09:16:49;101618.50;;;6.86;100.00
19748;BME280;10032;51.386;12.516;2023-02-11T09:19:16;101626.78;;;6.84;100.00
19748;BME280;10032;51.386;12.516;2023-02-11T09:21:41;101628.44;;;6.85;100.00
19748;BME280;10032;51.386;12.516;2023-02-11T09:24:07;101642.56;;;6.87;100.00
19748;BME280;10032;51.386;12.516;2023-02-11T09:26:34;101634.09;;;6.90;100.00
19748;BME280;10032;51.386;12.516;2023-02-11T09:29:01;101631.41;;;6.90;100.00
19748;BME280;10032;51.386;12.516;2023-02-11T09:31:28;101632.03;;;6.92;100.00
19748;BME280;10032;51.386;12.516;2023-02-11T09:33:57;101629.81;;;6.96;100.00
19748;BME280;10032;51.386;12.516;2023-02-11T09:36:25;101631.69;;;6.95;100.00
19748;BME280;10032;51.386;12.516;2023-02-11T09:38:53;101632.72;;;6.94;100.00
19748;BME280;10032;51.386;12.516;2023-02-11T09:43:58;101633.78;;;7.00;100.00
19748;BME280;10032;51.386;12.516;2023-02-11T09:46:30;101640.94;;;7.07;100.00
19748;BME280;10032;51.386;12.516;2023-02-11T09:48:58;101643.53;;;7.15;100.00
19748;BME280;10032;51.386;12.516;2023-02-11T09:51:47;101656.22;;;7.21;100.00
19748;BME280;10032;51.386;12.516;2023-02-11T09:54:27;101645.03;;;7.24;100.00
19748;BME280;10032;51.386;12.516;2023-02-11T09:56:54;101648.41;;;7.26;100.00
19748;BME280;10032;51.386;12.516;2023-02-11T09:59:19;101644.22;;;7.24;100.00
19748;BME280;10032;51.386;12.516;2023-02-11T10:01:59;101638.84;;;7.24;100.00
19748;BME280;10032;51.386;12.516;2023-02-11T10:16:25;101624.25;;;7.60;100.00
19748;BME280;10032;51.386;12.516;2023-02-11T10:25:20;101604.19;;;7.90;100.00
19748;BME280;10032;51.386;12.516;2023-02-11T10:27:46;101608.34;;;7.93;100.00
19748;BME280;10032;51.386;12.516;2023-02-11T10:32:51;101613.13;;;7.97;100.00
19748;BME280;10032;51.386;12.516;2023-02-11T10:35:22;101622.53;;;8.01;100.00
19748;BME280;10032;51.386;12.516;2023-02-11T10:37:48;101631.00;;;7.98;100.00
19748;BME280;10032;51.386;12.516;2023-02-11T10:40:23;101621.25;;;7.97;100.00
19748;BME280;10032;51.386;12.516;2023-02-11T10:42:52;101625.78;;;7.97;100.00
19748;BME280;10032;51.386;12.516;2023-02-11T10:45:41;101629.56;;;8.02;100.00
19748;BME280;10032;51.386;12.516;2023-02-11T10:48:40;101628.28;;;7.98;100.00
19748;BME280;10032;51.386;12.516;2023-02-11T10:53:31;101617.25;;;7.93;100.00
19748;BME280;10032;51.386;12.516;2023-02-11T10:55:58;101607.94;;;7.96;100.00
19748;BME280;10032;51.386;12.516;2023-02-11T10:58:35;101603.44;;;8.03;100.00
19748;BME280;10032;51.386;12.516;2023-02-11T11:01:03;101609.47;;;8.05;100.00
19748;BME280;10032;51.386;12.516;2023-02-11T11:03:36;101619.03;;;8.07;100.00
19748;BME280;10032;51.386;12.516;2023-02-11T11:06:05;101612.59;;;8.08;100.00
19748;BME280;10032;51.386;12.516;2023-02-11T11:08:46;101608.59;;;8.04;100.00
19748;BME280;10032;51.386;12.516;2023-02-11T11:11:14;101600.13;;;8.07;100.00
19748;BME280;10032;51.386;12.516;2023-02-11T11:21:41;101587.31;;;8.16;100.00
19748;BME280;10032;51.386;12.516;2023-02-11T11:24:24;101591.47;;;8.18;100.00
19748;BME280;10032;51.386;12.516;2023-02-11T11:26:55;101586.09;;;8.18;100.00
19748;BME280;10032;51.386;12.516;2023-02-11T11:32:23;101584.69;;;8.22;100.00
19748;BME280;10032;51.386;12.516;2023-02-11T11:34:59;101586.72;;;8.20;100.00
19748;BME280;10032;51.386;12.516;2023-02-11T11:37:29;101588.00;;;8.24;100.00
19748;BME280;10032;51.386;12.516;2023-02-11T11:39:58;101599.84;;;8.23;100.00
19748;BME280;10032;51.386;12.516;2023-02-11T11:42:33;101603.41;;;8.24;100.00
19748;BME280;10032;51.386;12.516;2023-02-11T11:47:47;101613.59;;;8.28;100.00
19748;BME280;10032;51.386;12.516;2023-02-11T11:52:59;101613.22;;;8.31;100.00
19748;BME280;10032;51.386;12.516;2023-02-11T11:56:05;101618.13;;;8.28;100.00
19748;BME280;10032;51.386;12.516;2023-02-11T11:58:34;101626.84;;;8.23;100.00
19748;BME280;10032;51.386;12.516;2023-02-11T12:01:19;101624.19;;;8.30;100.00
19748;BME280;10032;51.386;12.516;2023-02-11T12:34:17;101609.03;;;8.29;100.00
19748;BME280;10032;51.386;12.516;2023-02-11T12:53:44;101584.94;;;8.27;100.00
19748;BME280;10032;51.386;12.516;2023-02-11T12:56:22;101601.13;;;8.27;100.00
19748;BME280;10032;51.386;12.516;2023-02-11T12:58:51;101604.25;;;8.31;100.00
19748;BME280;10032;51.386;12.516;2023-02-11T13:01:23;101593.66;;;8.29;100.00
19748;BME280;10032;51.386;12.516;2023-02-11T13:03:54;101598.25;;;8.29;100.00
19748;BME280;10032;51.386;12.516;2023-02-11T13:06:28;101592.38;;;8.25;100.00
19748;BME280;10032;51.386;12.516;2023-02-11T13:09:02;101599.66;;;8.25;100.00
19748;BME280;10032;51.386;12.516;2023-02-11T13:11:33;101598.19;;;8.22;100.00
19748;BME280;10032;51.386;12.516;2023-02-11T13:14:24;101596.31;;;8.23;100.00
19748;BME280;10032;51.386;12.516;2023-02-11T13:16:52;101587.41;;;8.22;100.00
19748;BME280;10032;51.386;12.516;2023-02-11T13:19:33;101585.72;;;8.21;100.00
19748;BME280;10032;51.386;12.516;2023-02-11T13:22:12;101589.06;;;8.23;100.00
19748;BME280;10032;51.386;12.516;2023-02-11T13:27:40;101595.84;;;8.19;100.00
19748;BME280;10032;51.386;12.516;2023-02-11T13:30:26;101595.22;;;8.17;100.00
19748;BME280;10032;51.386;12.516;2023-02-11T13:35:31;101592.72;;;8.16;100.00
19748;BME280;10032;51.386;12.516;2023-02-11T13:37:58;101595.84;;;8.19;100.00
19748;BME280;10032;51.386;12.516;2023-02-11T13:40:26;101600.03;;;8.22;100.00
19748;BME280;10032;51.386;12.516;2023-02-11T13:42:58;101604.41;;;8.23;100.00
19748;BME280;10032;51.386;12.516;2023-02-11T13:45:29;101607.94;;;8.23;100.00
19748;BME280;10032;51.386;12.516;2023-02-11T13:47:57;101616.81;;;8.17;100.00
19748;BME280;10032;51.386;12.516;2023-02-11T13:50:24;101609.00;;;8.22;100.00
19748;BME280;10032;51.386;12.516;2023-02-11T13:53:02;101613.78;;;8.27;100.00
19748;BME280;10032;51.386;12.516;2023-02-11T13:55:29;101613.59;;;8.28;100.00
19748;BME280;10032;51.386;12.516;2023-02-11T14:03:21;101609.03;;;8.29;100.00
19748;BME280;10032;51.386;12.516;2023-02-11T14:19:42;101612.31;;;8.24;100.00
19748;BME280;10032;51.386;12.516;2023-02-11T14:27:24;101619.63;;;8.30;100.00
19748;BME280;10032;51.386;12.516;2023-02-11T14:30:45;101615.69;;;8.33;100.00
19748;BME280;10032;51.386;12.516;2023-02-11T14:41:32;101603.63;;;8.29;100.00
19748;BME280;10032;51.386;12.516;2023-02-11T14:44:03;101615.25;;;8.29;100.00
19748;BME280;10032;51.386;12.516;2023-02-11T14:46:31;101611.13;;;8.33;100.00
19748;BME280;10032;51.386;12.516;2023-02-11T14:48:59;101618.38;;;8.33;100.00
19748;BME280;10032;51.386;12.516;2023-02-11T14:53:58;101603.66;;;8.35;100.00
19748;BME280;10032;51.386;12.516;2023-02-11T14:56:27;101591.19;;;8.34;100.00
19748;BME280;10032;51.386;12.516;2023-02-11T14:58:56;101595.97;;;8.32;100.00
19748;BME280;10032;51.386;12.516;2023-02-11T15:01:34;101597.00;;;8.31;100.00
19748;BME280;10032;51.386;12.516;2023-02-11T15:04:02;101603.88;;;8.34;100.00
19748;BME280;10032;51.386;12.516;2023-02-11T15:06:40;101605.31;;;8.36;100.00
19748;BME280;10032;51.386;12.516;2023-02-11T15:09:15;101607.00;;;8.37;100.00
19748;BME280;10032;51.386;12.516;2023-02-11T15:11:44;101616.56;;;8.40;100.00
19748;BME280;10032;51.386;12.516;2023-02-11T15:14:30;101619.66;;;8.37;100.00
19748;BME280;10032;51.386;12.516;2023-02-11T15:16:58;101620.69;;;8.36;100.00
19748;BME280;10032;51.386;12.516;2023-02-11T15:19:35;101634.38;;;8.34;100.00
19748;BME280;10032;51.386;12.516;2023-02-11T15:22:06;101628.38;;;8.39;100.00
19748;BME280;10032;51.386;12.516;2023-02-11T15:24:37;101637.94;;;8.41;100.00
19748;BME280;10032;51.386;12.516;2023-02-11T15:29:38;101637.13;;;8.41;100.00
19748;BME280;10032;51.386;12.516;2023-02-11T15:34:39;101636.72;;;8.44;100.00